createdAt,value
2018-04-06T00:00:05.559Z,4.10
2018-04-06T00:01:05.467Z,4.10
2018-04-06T00:02:05.148Z,4.10
2018-04-06T00:03:04.922Z,4.10
2018-04-06T00:04:05.520Z,4.10
2018-04-06T00:05:05.058Z,4.10
2018-04-06T00:06:05.909Z,4.10
2018-04-06T00:07:05.435Z,4.10
2018-04-06T00:08:05.617Z,4.00
2018-04-06T00:09:05.465Z,4.00
2018-04-06T00:10:05.096Z,4.00
2018-04-06T00:11:05.435Z,4.00
2018-04-06T00:12:05.874Z,4.00
2018-04-06T00:13:05.491Z,3.90
2018-04-06T00:14:05.133Z,3.90
2018-04-06T00:15:05.486Z,3.90
2018-04-06T00:16:05.253Z,3.90
2018-04-06T00:17:05.186Z,3.90
2018-04-06T00:18:05.094Z,3.90
2018-04-06T00:19:05.841Z,3.90
2018-04-06T00:20:05.120Z,3.90
2018-04-06T00:21:05.150Z,3.90
2018-04-06T00:22:05.447Z,3.90
2018-04-06T00:23:05.881Z,3.90
2018-04-06T00:24:05.482Z,3.80
2018-04-06T00:25:07.128Z,3.80
2018-04-06T00:26:05.577Z,3.80
2018-04-06T00:27:05.447Z,3.80
2018-04-06T00:28:05.978Z,3.80
2018-04-06T00:29:05.220Z,3.80
2018-04-06T00:30:05.094Z,3.80
2018-04-06T00:31:06.776Z,3.80
2018-04-06T00:32:05.518Z,3.80
2018-04-06T00:33:04.801Z,3.70
2018-04-06T00:34:05.508Z,3.70
2018-04-06T00:35:05.136Z,3.70
2018-04-06T00:36:05.482Z,3.70
2018-04-06T00:37:05.135Z,3.70
2018-04-06T00:38:05.164Z,3.70
2018-04-06T00:39:05.454Z,3.70
2018-04-06T00:40:05.880Z,3.70
2018-04-06T00:41:05.917Z,3.70
2018-04-06T00:42:05.521Z,3.60
2018-04-06T00:43:05.868Z,3.70
2018-04-06T00:44:05.503Z,3.70
2018-04-06T00:45:05.954Z,3.60
2018-04-06T00:46:05.497Z,3.60
2018-04-06T00:47:05.524Z,3.60
2018-04-06T00:48:05.986Z,3.60
2018-04-06T00:49:05.595Z,3.60
2018-04-06T00:50:05.218Z,3.50
2018-04-06T00:51:05.506Z,3.50
2018-04-06T00:52:05.909Z,3.50
2018-04-06T00:53:05.635Z,3.40
2018-04-06T00:54:10.172Z,3.40
2018-04-06T00:55:05.581Z,3.40
2018-04-06T00:56:05.295Z,3.40
2018-04-06T00:57:05.908Z,3.40
2018-04-06T00:58:05.183Z,3.30
2018-04-06T00:59:05.484Z,3.30
2018-04-06T01:00:05.208Z,3.30
2018-04-06T01:01:05.550Z,3.30
2018-04-06T01:02:05.133Z,3.20
2018-04-06T01:03:05.884Z,3.20
2018-04-06T01:04:05.179Z,3.20
2018-04-06T01:05:05.576Z,3.20
2018-04-06T01:06:05.927Z,3.20
2018-04-06T01:07:05.895Z,3.10
2018-04-06T01:08:05.484Z,3.10
2018-04-06T01:09:05.113Z,3.10
2018-04-06T01:10:05.588Z,3.10
2018-04-06T01:11:06.276Z,3.10
2018-04-06T01:12:05.544Z,3.00
2018-04-06T01:13:05.495Z,3.00
2018-04-06T01:14:05.927Z,3.00
2018-04-06T01:15:10.247Z,3.00
2018-04-06T01:16:05.216Z,3.00
2018-04-06T01:17:05.622Z,2.90
2018-04-06T01:18:05.165Z,2.90
2018-04-06T01:19:05.115Z,2.90
2018-04-06T01:20:05.935Z,2.90
2018-04-06T01:21:09.851Z,2.90
2018-04-06T01:22:04.852Z,2.80
2018-04-06T01:23:05.125Z,2.80
2018-04-06T01:24:05.524Z,2.80
2018-04-06T01:25:05.905Z,2.70
2018-04-06T01:26:05.186Z,2.70
2018-04-06T01:27:05.584Z,2.70
2018-04-06T01:28:04.931Z,2.70
2018-04-06T01:29:04.920Z,2.60
2018-04-06T01:30:05.638Z,2.60
2018-04-06T01:31:05.209Z,2.60
2018-04-06T01:32:06.811Z,2.60
2018-04-06T01:33:05.516Z,2.60
2018-04-06T01:34:04.846Z,2.50
2018-04-06T01:35:05.590Z,2.50
2018-04-06T01:36:05.246Z,2.50
2018-04-06T01:37:05.904Z,2.40
2018-04-06T01:38:04.921Z,2.40
2018-04-06T01:39:05.651Z,2.40
2018-04-06T01:40:05.527Z,2.40
2018-04-06T01:41:05.959Z,2.40
2018-04-06T01:42:05.397Z,2.30
2018-04-06T01:43:04.868Z,2.30
2018-04-06T01:44:05.534Z,2.30
2018-04-06T01:45:04.917Z,2.30
2018-04-06T01:46:05.154Z,2.30
2018-04-06T01:47:05.648Z,2.30
2018-04-06T01:48:05.284Z,2.30
2018-04-06T01:49:05.951Z,2.30
2018-04-06T01:50:05.539Z,2.30
2018-04-06T01:51:05.609Z,2.30
2018-04-06T01:52:04.863Z,2.30
2018-04-06T01:53:05.561Z,2.30
2018-04-06T01:54:05.786Z,2.30
2018-04-06T01:55:05.155Z,2.30
2018-04-06T01:56:05.180Z,2.30
2018-04-06T01:57:05.664Z,2.20
2018-04-06T01:58:05.164Z,2.20
2018-04-06T01:59:05.648Z,2.20
2018-04-06T02:00:05.184Z,2.20
2018-04-06T02:01:05.338Z,2.20
2018-04-06T02:02:05.544Z,2.20
2018-04-06T02:03:05.962Z,2.20
2018-04-06T02:04:05.613Z,2.10
2018-04-06T02:05:05.789Z,2.10
2018-04-06T02:06:05.757Z,2.10
2018-04-06T02:07:05.584Z,2.10
2018-04-06T02:08:05.205Z,2.10
2018-04-06T02:09:05.584Z,2.10
2018-04-06T02:10:04.997Z,2.10
2018-04-06T02:11:04.967Z,2.10
2018-04-06T02:12:05.556Z,2.10
2018-04-06T02:13:05.638Z,2.10
2018-04-06T02:14:05.208Z,2.10
2018-04-06T02:15:05.576Z,2.00
2018-04-06T02:16:04.845Z,2.00
2018-04-06T02:17:05.251Z,2.00
2018-04-06T02:18:05.611Z,2.00
2018-04-06T02:19:04.804Z,2.00
2018-04-06T02:20:05.203Z,2.00
2018-04-06T02:21:05.396Z,2.00
2018-04-06T02:22:05.954Z,2.00
2018-04-06T02:23:05.294Z,2.00
2018-04-06T02:24:04.904Z,2.00
2018-04-06T02:25:05.212Z,2.00
2018-04-06T02:26:05.973Z,2.00
2018-04-06T02:27:05.607Z,2.00
2018-04-06T02:28:04.908Z,2.00
2018-04-06T02:29:05.216Z,2.00
2018-04-06T02:30:05.256Z,1.90
2018-04-06T02:31:05.603Z,1.90
2018-04-06T02:32:05.193Z,1.90
2018-04-06T02:33:05.307Z,1.90
2018-04-06T02:34:05.585Z,1.90
2018-04-06T02:35:05.323Z,1.90
2018-04-06T02:36:05.214Z,1.90
2018-04-06T02:37:05.576Z,1.90
2018-04-06T02:38:05.553Z,1.80
2018-04-06T02:39:05.205Z,1.80
2018-04-06T02:40:04.855Z,1.80
2018-04-06T02:41:05.398Z,1.80
2018-04-06T02:42:06.783Z,1.80
2018-04-06T02:43:05.646Z,1.80
2018-04-06T02:44:05.025Z,1.80
2018-04-06T02:45:05.617Z,1.70
2018-04-06T02:46:05.654Z,1.70
2018-04-06T02:47:06.820Z,1.70
2018-04-06T02:48:05.631Z,1.70
2018-04-06T02:49:05.729Z,1.70
2018-04-06T02:50:05.265Z,1.70
2018-04-06T02:51:05.976Z,1.60
2018-04-06T02:52:05.705Z,1.60
2018-04-06T02:53:05.712Z,1.60
2018-04-06T02:54:05.277Z,1.60
2018-04-06T02:55:05.661Z,1.60
2018-04-06T02:56:05.282Z,1.60
2018-04-06T02:57:06.024Z,1.50
2018-04-06T02:58:04.895Z,1.50
2018-04-06T02:59:05.214Z,1.50
2018-04-06T03:00:05.702Z,1.50
2018-04-06T03:01:04.876Z,1.50
2018-04-06T03:02:05.684Z,1.50
2018-04-06T03:03:05.665Z,1.50
2018-04-06T03:04:05.645Z,1.50
2018-04-06T03:05:05.711Z,1.50
2018-04-06T03:06:05.634Z,1.40
2018-04-06T03:07:05.272Z,1.40
2018-04-06T03:08:06.007Z,1.40
2018-04-06T03:09:05.742Z,1.40
2018-04-06T03:10:05.758Z,1.40
2018-04-06T03:11:05.637Z,1.40
2018-04-06T03:12:05.254Z,1.40
2018-04-06T03:13:05.252Z,1.40
2018-04-06T03:14:05.294Z,1.40
2018-04-06T03:15:05.630Z,1.40
2018-04-06T03:16:05.613Z,1.30
2018-04-06T03:17:05.613Z,1.30
2018-04-06T03:18:04.900Z,1.30
2018-04-06T03:19:05.252Z,1.30
2018-04-06T03:20:05.695Z,1.30
2018-04-06T03:21:05.752Z,1.30
2018-04-06T03:22:04.942Z,1.30
2018-04-06T03:23:05.617Z,1.30
2018-04-06T03:24:04.903Z,1.30
2018-04-06T03:25:05.289Z,1.20
2018-04-06T03:26:06.053Z,1.20
2018-04-06T03:27:05.749Z,1.20
2018-04-06T03:28:05.313Z,1.20
2018-04-06T03:29:05.645Z,1.20
2018-04-06T03:30:05.346Z,1.20
2018-04-06T03:31:05.333Z,1.20
2018-04-06T03:32:06.062Z,1.20
2018-04-06T03:33:05.727Z,1.20
2018-04-06T03:34:04.954Z,1.20
2018-04-06T03:35:05.289Z,1.20
2018-04-06T03:36:05.643Z,1.20
2018-04-06T03:37:05.633Z,1.20
2018-04-06T03:38:05.376Z,1.20
2018-04-06T03:39:04.893Z,1.20
2018-04-06T03:40:05.292Z,1.20
2018-04-06T03:41:05.284Z,1.20
2018-04-06T03:42:05.370Z,1.20
2018-04-06T03:43:05.283Z,1.20
2018-04-06T03:44:05.686Z,1.10
2018-04-06T03:45:05.071Z,1.10
2018-04-06T03:46:05.654Z,1.10
2018-04-06T03:47:05.406Z,1.10
2018-04-06T03:48:06.028Z,1.10
2018-04-06T03:49:05.335Z,1.00
2018-04-06T03:50:05.696Z,1.00
2018-04-06T03:51:06.160Z,1.00
2018-04-06T03:52:05.370Z,1.00
2018-04-06T03:53:05.393Z,1.00
2018-04-06T03:54:05.088Z,1.00
2018-04-06T03:55:05.355Z,1.00
2018-04-06T03:56:05.686Z,1.00
2018-04-06T03:57:04.892Z,1.00
2018-04-06T03:58:05.765Z,1.00
2018-04-06T03:59:05.013Z,1.00
2018-04-06T04:00:05.485Z,1.00
2018-04-06T04:01:04.922Z,0.90
2018-04-06T04:02:05.098Z,1.00
2018-04-06T04:03:05.754Z,0.90
2018-04-06T04:04:05.476Z,0.90
2018-04-06T04:05:05.317Z,0.90
2018-04-06T04:06:05.436Z,0.90
2018-04-06T04:07:05.739Z,0.90
2018-04-06T04:08:05.766Z,0.90
2018-04-06T04:09:05.548Z,0.90
2018-04-06T04:10:05.296Z,0.90
2018-04-06T04:11:05.374Z,0.90
2018-04-06T04:12:05.285Z,0.90
2018-04-06T04:13:05.787Z,1.00
2018-04-06T04:14:05.292Z,0.90
2018-04-06T04:15:05.007Z,1.00
2018-04-06T04:16:05.734Z,1.00
2018-04-06T04:17:05.100Z,1.00
2018-04-06T04:18:05.742Z,0.90
2018-04-06T04:19:05.332Z,0.90
2018-04-06T04:20:05.784Z,1.00
2018-04-06T04:21:04.954Z,0.90
2018-04-06T04:22:05.295Z,0.90
2018-04-06T04:23:05.325Z,0.90
2018-04-06T04:24:05.694Z,0.90
2018-04-06T04:25:05.433Z,0.90
2018-04-06T04:26:05.019Z,0.90
2018-04-06T04:27:05.426Z,0.90
2018-04-06T04:28:05.503Z,0.90
2018-04-06T04:29:05.759Z,0.90
2018-04-06T04:30:05.402Z,0.90
2018-04-06T04:31:05.314Z,0.90
2018-04-06T04:32:05.712Z,0.90
2018-04-06T04:33:05.434Z,0.90
2018-04-06T04:34:05.822Z,0.80
2018-04-06T04:35:05.374Z,0.80
2018-04-06T04:36:05.692Z,0.80
2018-04-06T04:37:05.460Z,0.80
2018-04-06T04:38:05.349Z,0.70
2018-04-06T04:39:05.030Z,0.80
2018-04-06T04:40:05.734Z,0.70
2018-04-06T04:41:04.952Z,0.70
2018-04-06T04:42:10.088Z,0.70
2018-04-06T04:43:05.314Z,0.70
2018-04-06T04:44:04.989Z,0.60
2018-04-06T04:45:05.805Z,0.60
2018-04-06T04:46:05.741Z,0.60
2018-04-06T04:47:05.007Z,0.60
2018-04-06T04:48:05.736Z,0.60
2018-04-06T04:49:04.993Z,0.60
2018-04-06T04:50:05.744Z,0.60
2018-04-06T04:51:05.376Z,0.60
2018-04-06T04:52:05.525Z,0.60
2018-04-06T04:53:05.736Z,0.60
2018-04-06T04:54:05.408Z,0.60
2018-04-06T04:55:05.451Z,0.60
2018-04-06T04:56:05.459Z,0.60
2018-04-06T04:57:04.992Z,0.60
2018-04-06T04:58:06.473Z,0.60
2018-04-06T04:59:05.836Z,0.60
2018-04-06T05:00:05.430Z,0.60
2018-04-06T05:01:04.975Z,0.60
2018-04-06T05:02:04.972Z,0.60
2018-04-06T05:03:05.437Z,0.60
2018-04-06T05:04:05.752Z,0.60
2018-04-06T05:05:05.358Z,0.60
2018-04-06T05:06:05.500Z,0.60
2018-04-06T05:07:04.964Z,0.60
2018-04-06T05:08:05.738Z,0.60
2018-04-06T05:09:04.999Z,0.60
2018-04-06T05:10:05.153Z,0.70
2018-04-06T05:11:05.163Z,0.70
2018-04-06T05:12:06.112Z,0.80
2018-04-06T05:13:05.352Z,0.80
2018-04-06T05:14:05.586Z,0.90
2018-04-06T05:15:05.829Z,0.90
2018-04-06T05:16:05.775Z,1.00
2018-04-06T05:17:05.446Z,1.10
2018-04-06T05:18:05.752Z,1.10
2018-04-06T05:19:05.773Z,1.20
2018-04-06T05:20:05.397Z,1.30
2018-04-06T05:21:05.418Z,1.40
2018-04-06T05:22:05.451Z,1.50
2018-04-06T05:23:05.743Z,1.60
2018-04-06T05:24:06.965Z,1.70
2018-04-06T05:25:04.973Z,1.80
2018-04-06T05:26:05.784Z,1.90
2018-04-06T05:27:05.936Z,2.00
2018-04-06T05:28:05.395Z,2.10
2018-04-06T05:29:05.493Z,2.20
2018-04-06T05:30:05.758Z,2.30
2018-04-06T05:31:04.973Z,2.50
2018-04-06T05:32:05.410Z,2.60
2018-04-06T05:33:05.107Z,2.80
2018-04-06T05:34:05.852Z,3.00
2018-04-06T05:35:05.129Z,3.10
2018-04-06T05:36:05.813Z,3.30
2018-04-06T05:37:04.845Z,3.50
2018-04-06T05:38:05.382Z,3.60
2018-04-06T05:39:05.804Z,3.80
2018-04-06T05:40:05.035Z,3.90
2018-04-06T05:41:04.996Z,4.10
2018-04-06T05:42:05.744Z,4.20
2018-04-06T05:43:04.996Z,4.40
2018-04-06T05:44:05.780Z,4.50
2018-04-06T05:45:05.461Z,4.70
2018-04-06T05:46:05.825Z,4.80
2018-04-06T05:47:05.514Z,5.00
2018-04-06T05:48:05.106Z,5.10
2018-04-06T05:49:05.385Z,5.30
2018-04-06T05:50:05.439Z,5.40
2018-04-06T05:51:05.807Z,5.50
2018-04-06T05:52:05.011Z,5.70
2018-04-06T05:53:05.858Z,5.80
2018-04-06T05:54:05.763Z,6.00
2018-04-06T05:55:10.349Z,6.10
2018-04-06T05:56:05.422Z,6.20
2018-04-06T05:57:05.455Z,6.40
2018-04-06T05:58:05.407Z,6.50
2018-04-06T05:59:05.403Z,6.60
2018-04-06T06:00:05.844Z,6.80
2018-04-06T06:01:05.022Z,6.90
2018-04-06T06:02:05.099Z,7.00
2018-04-06T06:03:05.566Z,7.10
2018-04-06T06:04:05.383Z,7.20
2018-04-06T06:05:05.149Z,7.30
2018-04-06T06:06:05.423Z,7.40
2018-04-06T06:07:05.497Z,7.50
2018-04-06T06:08:05.820Z,7.60
2018-04-06T06:09:05.775Z,7.70
2018-04-06T06:10:05.415Z,7.80
2018-04-06T06:11:05.443Z,7.90
2018-04-06T06:12:05.045Z,8.00
2018-04-06T06:13:06.386Z,8.10
2018-04-06T06:14:05.074Z,8.20
2018-04-06T06:15:05.561Z,8.30
2018-04-06T06:16:05.139Z,8.40
2018-04-06T06:17:05.446Z,8.50
2018-04-06T06:18:05.445Z,8.50
2018-04-06T06:19:05.055Z,8.60
2018-04-06T06:20:05.482Z,8.70
2018-04-06T06:21:05.025Z,8.80
2018-04-06T06:22:05.122Z,8.90
2018-04-06T06:23:05.904Z,9.00
2018-04-06T06:24:05.163Z,9.00
2018-04-06T06:25:05.176Z,9.10
2018-04-06T06:26:04.750Z,9.20
2018-04-06T06:27:05.494Z,9.30
2018-04-06T06:28:05.065Z,9.30
2018-04-06T06:29:05.825Z,9.40
2018-04-06T06:30:05.475Z,9.50
2018-04-06T06:31:05.904Z,9.60
2018-04-06T06:32:05.919Z,9.60
2018-04-06T06:33:05.418Z,9.70
2018-04-06T06:34:05.075Z,9.70
2018-04-06T06:35:05.452Z,9.80
2018-04-06T06:36:05.808Z,9.80
2018-04-06T06:37:05.157Z,9.90
2018-04-06T06:38:05.911Z,9.90
2018-04-06T06:39:05.120Z,9.90
2018-04-06T06:40:05.867Z,10.00
2018-04-06T06:41:05.132Z,10.00
2018-04-06T06:42:05.120Z,10.00
2018-04-06T06:43:05.431Z,10.10
2018-04-06T06:44:05.476Z,10.10
2018-04-06T06:45:05.046Z,10.10
2018-04-06T06:46:05.918Z,10.20
2018-04-06T06:47:05.615Z,10.20
2018-04-06T06:48:05.189Z,10.20
2018-04-06T06:49:05.107Z,10.20
2018-04-06T06:50:05.243Z,10.30
2018-04-06T06:51:05.086Z,10.30
2018-04-06T06:52:05.496Z,10.30
2018-04-06T06:53:05.203Z,10.40
2018-04-06T06:54:05.119Z,10.40
2018-04-06T06:55:05.254Z,10.40
2018-04-06T06:56:05.820Z,10.50
2018-04-06T06:57:05.840Z,10.50
2018-04-06T06:58:05.088Z,10.50
2018-04-06T06:59:05.532Z,10.50
2018-04-06T07:00:05.541Z,10.50
2018-04-06T07:01:05.441Z,10.50
2018-04-06T07:02:05.531Z,10.60
2018-04-06T07:03:04.778Z,10.60
2018-04-06T07:04:05.458Z,10.60
2018-04-06T07:05:05.562Z,10.60
2018-04-06T07:06:05.459Z,10.60
2018-04-06T07:07:05.079Z,10.70
2018-04-06T07:08:05.489Z,10.70
2018-04-06T07:09:05.584Z,10.80
2018-04-06T07:10:05.870Z,10.80
2018-04-06T07:11:05.098Z,10.90
2018-04-06T07:12:05.299Z,10.90
2018-04-06T07:13:05.809Z,10.90
2018-04-06T07:14:05.897Z,10.90
2018-04-06T07:15:05.469Z,10.90
2018-04-06T07:16:05.669Z,11.00
2018-04-06T07:17:05.079Z,11.00
2018-04-06T07:18:05.646Z,11.00
2018-04-06T07:19:05.110Z,11.10
2018-04-06T07:20:05.852Z,11.10
2018-04-06T07:21:04.881Z,11.10
2018-04-06T07:22:05.498Z,11.10
2018-04-06T07:23:05.574Z,11.10
2018-04-06T07:24:05.615Z,11.10
2018-04-06T07:25:05.181Z,11.10
2018-04-06T07:26:05.601Z,11.10
2018-04-06T07:27:05.321Z,11.10
2018-04-06T07:28:05.235Z,11.20
2018-04-06T07:29:05.672Z,11.20
2018-04-06T07:30:05.509Z,11.20
2018-04-06T07:31:04.826Z,11.20
2018-04-06T07:32:05.566Z,11.20
2018-04-06T07:33:05.186Z,11.20
2018-04-06T07:34:04.815Z,11.20
2018-04-06T07:35:05.290Z,11.20
2018-04-06T07:36:05.885Z,11.20
2018-04-06T07:37:05.512Z,11.10
2018-04-06T07:38:05.962Z,11.10
2018-04-06T07:39:05.214Z,11.10
2018-04-06T07:40:05.578Z,11.00
2018-04-06T07:41:05.548Z,11.00
2018-04-06T07:42:05.630Z,11.00
2018-04-06T07:43:05.519Z,11.00
2018-04-06T07:44:04.836Z,10.90
2018-04-06T07:45:05.227Z,10.90
2018-04-06T07:46:05.589Z,10.90
2018-04-06T07:47:05.605Z,10.90
2018-04-06T07:48:04.872Z,10.80
2018-04-06T07:49:05.254Z,10.80
2018-04-06T07:50:04.835Z,10.80
2018-04-06T07:51:05.158Z,10.70
2018-04-06T07:52:04.750Z,10.60
2018-04-06T07:53:05.153Z,10.60
2018-04-06T07:54:05.531Z,10.50
2018-04-06T07:55:05.542Z,10.40
2018-04-06T07:56:04.845Z,10.40
2018-04-06T07:57:05.671Z,10.40
2018-04-06T07:58:05.209Z,10.40
2018-04-06T07:59:05.569Z,10.40
2018-04-06T08:00:04.906Z,10.40
2018-04-06T08:01:05.637Z,10.40
2018-04-06T08:02:04.865Z,10.40
2018-04-06T08:03:05.162Z,10.30
2018-04-06T08:04:05.633Z,10.30
2018-04-06T08:05:05.161Z,10.30
2018-04-06T08:06:05.558Z,10.30
2018-04-06T08:07:05.552Z,10.20
2018-04-06T08:08:05.714Z,10.20
2018-04-06T08:09:05.684Z,10.20
2018-04-06T08:10:04.860Z,10.10
2018-04-06T08:11:05.178Z,10.10
2018-04-06T08:12:05.892Z,10.10
2018-04-06T08:13:05.172Z,10.00
2018-04-06T08:14:05.576Z,10.00
2018-04-06T08:15:04.791Z,9.90
2018-04-06T08:16:05.194Z,9.90
2018-04-06T08:17:04.842Z,9.90
2018-04-06T08:18:05.181Z,9.80
2018-04-06T08:19:05.515Z,9.80
2018-04-06T08:20:04.932Z,9.70
2018-04-06T08:21:05.154Z,9.60
2018-04-06T08:22:05.542Z,9.60
2018-04-06T08:23:04.858Z,9.60
2018-04-06T08:24:05.194Z,9.50
2018-04-06T08:25:05.151Z,9.50
2018-04-06T08:26:04.870Z,9.40
2018-04-06T08:27:05.301Z,9.40
2018-04-06T08:28:05.933Z,9.40
2018-04-06T08:29:05.522Z,9.30
2018-04-06T08:30:04.899Z,9.30
2018-04-06T08:31:05.669Z,9.30
2018-04-06T08:32:05.154Z,9.30
2018-04-06T08:33:05.568Z,9.30
2018-04-06T08:34:05.662Z,9.30
2018-04-06T08:35:05.283Z,9.30
2018-04-06T08:36:05.563Z,9.20
2018-04-06T08:37:04.902Z,9.20
2018-04-06T08:38:04.776Z,9.20
2018-04-06T08:39:04.970Z,9.30
2018-04-06T08:40:04.892Z,9.30
2018-04-06T08:41:05.648Z,9.40
2018-04-06T08:42:04.954Z,9.40
2018-04-06T08:43:05.595Z,9.50
2018-04-06T08:44:05.922Z,9.50
2018-04-06T08:45:05.003Z,9.60
2018-04-06T08:46:05.370Z,9.60
2018-04-06T08:47:05.654Z,9.70
2018-04-06T08:48:04.795Z,9.70
2018-04-06T08:49:05.227Z,9.70
2018-04-06T08:50:04.856Z,9.80
2018-04-06T08:51:04.820Z,9.80
2018-04-06T08:52:05.220Z,9.80
2018-04-06T08:53:05.248Z,9.80
2018-04-06T08:54:05.661Z,9.80
2018-04-06T08:55:05.192Z,9.80
2018-04-06T08:56:05.649Z,9.90
2018-04-06T08:57:04.782Z,9.90
2018-04-06T08:58:05.596Z,9.90
2018-04-06T08:59:05.610Z,9.90
2018-04-06T09:00:05.292Z,9.90
2018-04-06T09:01:05.282Z,9.90
2018-04-06T09:02:05.941Z,9.80
2018-04-06T09:03:05.654Z,9.80
2018-04-06T09:04:05.246Z,9.80
2018-04-06T09:05:05.619Z,9.80
2018-04-06T09:06:05.194Z,9.80
2018-04-06T09:07:05.586Z,9.80
2018-04-06T09:08:05.191Z,9.80
2018-04-06T09:09:05.171Z,9.80
2018-04-06T09:10:04.905Z,9.90
2018-04-06T09:11:05.299Z,9.90
2018-04-06T09:12:05.200Z,9.90
2018-04-06T09:13:05.602Z,9.90
2018-04-06T09:14:04.854Z,9.90
2018-04-06T09:15:05.191Z,10.00
2018-04-06T09:16:05.678Z,10.00
2018-04-06T09:17:05.224Z,10.00
2018-04-06T09:18:05.386Z,10.00
2018-04-06T09:19:05.594Z,10.10
2018-04-06T09:20:04.850Z,10.10
2018-04-06T09:21:04.939Z,10.20
2018-04-06T09:22:05.313Z,10.20
2018-04-06T09:23:05.606Z,10.20
2018-04-06T09:24:05.360Z,10.20
2018-04-06T09:25:05.581Z,10.20
2018-04-06T09:26:04.957Z,10.20
2018-04-06T09:27:05.297Z,10.20
2018-04-06T09:28:05.600Z,10.20
2018-04-06T09:29:05.290Z,10.20
2018-04-06T09:30:05.717Z,10.20
2018-04-06T09:31:05.237Z,10.20
2018-04-06T09:32:05.600Z,10.30
2018-04-06T09:33:05.621Z,10.20
2018-04-06T09:34:05.212Z,10.20
2018-04-06T09:35:05.621Z,10.30
2018-04-06T09:36:05.002Z,10.20
2018-04-06T09:37:05.668Z,10.20
2018-04-06T09:38:05.632Z,10.30
2018-04-06T09:39:04.925Z,10.20
2018-04-06T09:40:05.617Z,10.20
2018-04-06T09:41:05.768Z,10.20
2018-04-06T09:42:05.212Z,10.30
2018-04-06T09:43:05.301Z,10.30
2018-04-06T09:44:05.695Z,10.30
2018-04-06T09:45:04.901Z,10.30
2018-04-06T09:46:05.235Z,10.30
2018-04-06T09:47:06.753Z,10.40
2018-04-06T09:48:05.612Z,10.40
2018-04-06T09:49:04.836Z,10.40
2018-04-06T09:50:04.969Z,10.40
2018-04-06T09:51:05.346Z,10.50
2018-04-06T09:52:04.860Z,10.50
2018-04-06T09:53:05.620Z,10.50
2018-04-06T09:54:05.065Z,10.50
2018-04-06T09:55:05.601Z,10.60
2018-04-06T09:56:05.739Z,10.60
2018-04-06T09:57:04.931Z,10.50
2018-04-06T09:58:06.012Z,10.60
2018-04-06T09:59:04.918Z,10.60
2018-04-06T10:00:05.325Z,10.60
2018-04-06T10:01:04.859Z,10.60
2018-04-06T10:02:04.910Z,10.60
2018-04-06T10:03:06.094Z,10.60
2018-04-06T10:04:04.938Z,10.60
2018-04-06T10:05:05.305Z,10.70
2018-04-06T10:06:05.620Z,10.70
2018-04-06T10:07:04.911Z,10.70
2018-04-06T10:08:05.061Z,10.70
2018-04-06T10:09:05.289Z,10.70
2018-04-06T10:10:04.860Z,10.70
2018-04-06T10:11:05.361Z,10.70
2018-04-06T10:12:04.880Z,10.80
2018-04-06T10:13:05.230Z,10.80
2018-04-06T10:14:05.630Z,10.80
2018-04-06T10:15:04.916Z,10.80
2018-04-06T10:16:05.268Z,10.80
2018-04-06T10:17:05.630Z,10.80
2018-04-06T10:18:04.919Z,10.80
2018-04-06T10:19:05.377Z,10.90
2018-04-06T10:20:05.684Z,10.90
2018-04-06T10:21:05.040Z,10.90
2018-04-06T10:22:05.661Z,10.90
2018-04-06T10:23:05.693Z,11.00
2018-04-06T10:24:05.620Z,11.00
2018-04-06T10:25:05.694Z,11.00
2018-04-06T10:26:04.898Z,11.00
2018-04-06T10:27:04.839Z,11.00
2018-04-06T10:28:05.281Z,11.00
2018-04-06T10:29:06.144Z,11.10
2018-04-06T10:30:05.638Z,11.10
2018-04-06T10:31:04.891Z,11.10
2018-04-06T10:32:04.993Z,11.10
2018-04-06T10:33:05.356Z,11.10
2018-04-06T10:34:04.920Z,11.20
2018-04-06T10:35:04.934Z,11.10
2018-04-06T10:36:05.627Z,11.20
2018-04-06T10:37:05.821Z,11.20
2018-04-06T10:38:05.049Z,11.20
2018-04-06T10:39:05.388Z,11.20
2018-04-06T10:40:05.677Z,11.20
2018-04-06T10:41:05.734Z,11.20
2018-04-06T10:42:05.648Z,11.30
2018-04-06T10:43:05.299Z,11.30
2018-04-06T10:44:05.350Z,11.30
2018-04-06T10:45:05.690Z,11.30
2018-04-06T10:46:05.257Z,11.30
2018-04-06T10:47:05.637Z,11.40
2018-04-06T10:48:04.976Z,11.40
2018-04-06T10:49:05.027Z,11.40
2018-04-06T10:50:04.898Z,11.40
2018-04-06T10:51:05.290Z,11.40
2018-04-06T10:52:05.267Z,11.40
2018-04-06T10:53:04.988Z,11.40
2018-04-06T10:54:04.921Z,11.40
2018-04-06T10:55:05.314Z,11.40
2018-04-06T10:56:05.799Z,11.50
2018-04-06T10:57:05.307Z,11.50
2018-04-06T10:58:05.656Z,11.50
2018-04-06T10:59:05.358Z,11.50
2018-04-06T11:00:05.714Z,11.60
2018-04-06T11:01:05.328Z,11.60
2018-04-06T11:02:10.541Z,11.60
2018-04-06T11:03:05.141Z,11.50
2018-04-06T11:04:04.951Z,11.60
2018-04-06T11:05:05.734Z,11.60
2018-04-06T11:06:04.908Z,11.60
2018-04-06T11:07:05.336Z,11.70
2018-04-06T11:08:05.693Z,11.70
2018-04-06T11:09:05.394Z,11.70
2018-04-06T11:10:05.763Z,11.80
2018-04-06T11:11:04.910Z,11.80
2018-04-06T11:12:05.464Z,11.80
2018-04-06T11:13:05.018Z,11.80
2018-04-06T11:14:05.402Z,11.80
2018-04-06T11:15:04.907Z,11.90
2018-04-06T11:16:05.420Z,11.90
2018-04-06T11:17:04.918Z,11.90
2018-04-06T11:18:05.292Z,12.00
2018-04-06T11:19:05.368Z,12.00
2018-04-06T11:20:04.959Z,12.10
2018-04-06T11:21:05.339Z,12.10
2018-04-06T11:22:05.677Z,12.10
2018-04-06T11:23:04.929Z,12.10
2018-04-06T11:24:05.295Z,12.10
2018-04-06T11:25:04.966Z,12.10
2018-04-06T11:26:05.371Z,12.20
2018-04-06T11:27:05.335Z,12.20
2018-04-06T11:28:05.690Z,12.20
2018-04-06T11:29:05.326Z,12.20
2018-04-06T11:30:05.420Z,12.20
2018-04-06T11:31:05.834Z,12.20
2018-04-06T11:32:05.700Z,12.20
2018-04-06T11:33:05.359Z,12.20
2018-04-06T11:34:05.748Z,12.20
2018-04-06T11:35:05.315Z,12.20
2018-04-06T11:36:04.993Z,12.30
2018-04-06T11:37:05.357Z,12.30
2018-04-06T11:38:05.141Z,12.30
2018-04-06T11:39:05.429Z,12.30
2018-04-06T11:40:05.027Z,12.30
2018-04-06T11:41:05.753Z,12.30
2018-04-06T11:42:05.697Z,12.40
2018-04-06T11:43:04.974Z,12.40
2018-04-06T11:44:05.329Z,12.40
2018-04-06T11:45:05.756Z,12.40
2018-04-06T11:46:05.358Z,12.40
2018-04-06T11:47:05.050Z,12.40
2018-04-06T11:48:05.419Z,12.40
2018-04-06T11:49:05.706Z,12.40
2018-04-06T11:50:04.950Z,12.50
2018-04-06T11:51:05.346Z,12.50
2018-04-06T11:52:05.394Z,12.60
2018-04-06T11:53:05.317Z,12.60
2018-04-06T11:54:04.679Z,12.60
2018-04-06T11:55:10.520Z,12.70
2018-04-06T11:56:08.679Z,12.60
2018-04-06T11:57:05.705Z,12.70
2018-04-06T11:58:04.658Z,12.70
2018-04-06T11:59:04.945Z,12.70
2018-04-06T12:00:05.125Z,12.70
2018-04-06T12:01:05.719Z,12.70
2018-04-06T12:02:05.401Z,12.70
2018-04-06T12:03:05.716Z,12.70
2018-04-06T12:04:05.739Z,12.70
2018-04-06T12:05:05.014Z,12.70
2018-04-06T12:06:05.735Z,12.70
2018-04-06T12:07:05.349Z,12.60
2018-04-06T12:08:05.457Z,12.60
2018-04-06T12:09:05.736Z,12.50
2018-04-06T12:10:04.679Z,12.50
2018-04-06T12:11:05.051Z,12.50
2018-04-06T12:12:05.717Z,12.50
2018-04-06T12:13:04.986Z,12.50
2018-04-06T12:14:05.469Z,12.50
2018-04-06T12:15:05.767Z,12.50
2018-04-06T12:16:04.976Z,12.50
2018-04-06T12:17:05.352Z,12.50
2018-04-06T12:18:05.528Z,12.60
2018-04-06T12:19:04.976Z,12.60
2018-04-06T12:20:05.015Z,12.60
2018-04-06T12:21:05.359Z,12.60
2018-04-06T12:22:05.735Z,12.60
2018-04-06T12:23:05.428Z,12.60
2018-04-06T12:24:05.812Z,12.60
2018-04-06T12:25:05.482Z,12.70
2018-04-06T12:26:05.406Z,12.70
2018-04-06T12:27:05.082Z,12.70
2018-04-06T12:28:05.427Z,12.70
2018-04-06T12:29:05.480Z,12.70
2018-04-06T12:30:04.991Z,12.70
2018-04-06T12:31:05.460Z,12.70
2018-04-06T12:32:04.733Z,12.70
2018-04-06T12:33:04.989Z,12.70
2018-04-06T12:34:05.068Z,12.70
2018-04-06T12:35:05.442Z,12.70
2018-04-06T12:36:05.030Z,12.70
2018-04-06T12:37:05.025Z,12.70
2018-04-06T12:38:05.436Z,12.70
2018-04-06T12:39:05.411Z,12.70
2018-04-06T12:40:05.558Z,12.70
2018-04-06T12:41:04.784Z,12.80
2018-04-06T12:42:05.347Z,12.80
2018-04-06T12:43:05.061Z,12.80
2018-04-06T12:44:05.007Z,12.80
2018-04-06T12:45:05.795Z,12.80
2018-04-06T12:46:04.989Z,12.80
2018-04-06T12:47:05.378Z,12.80
2018-04-06T12:48:05.766Z,12.90
2018-04-06T12:49:05.755Z,12.90
2018-04-06T12:50:05.051Z,12.90
2018-04-06T12:51:05.468Z,12.90
2018-04-06T12:52:05.367Z,12.90
2018-04-06T12:53:05.006Z,12.90
2018-04-06T12:54:05.398Z,12.90
2018-04-06T12:55:05.854Z,12.90
2018-04-06T12:56:05.427Z,12.90
2018-04-06T12:57:05.485Z,12.90
2018-04-06T12:58:05.452Z,12.90
2018-04-06T12:59:05.468Z,12.90
2018-04-06T13:00:05.102Z,12.90
2018-04-06T13:01:05.031Z,12.90
2018-04-06T13:02:05.796Z,12.90
2018-04-06T13:03:05.397Z,12.90
2018-04-06T13:04:05.032Z,13.00
2018-04-06T13:05:05.389Z,13.00
2018-04-06T13:06:05.036Z,13.00
2018-04-06T13:07:05.102Z,13.00